Terminal Aerodrome Forecast
Issued by NWS

Home | Current Version | Previous Version | Text Only | Print | Product List | Glossary On
Versions: 1 2 3 4 5 6 7 8 9 10 11 12 13 14 15 16 17
000
FTAK31 PAJN 302339
TAFAJN
TAF
PAJN 302339Z 3100/3124 08008KT P6SM VCSH FEW015 BKN060 OVC080
      TEMPO 3100/3102 VRB03KT
     FM310600 10010KT P6SM -RA OVC050
     FM310900 11012KT P6SM -RA BKN025 OVC040
     FM311800 21005KT P6SM -RA OVC025
     FM312100 14008KT P6SM -SHRA SCT025 OVC050=

USA.gov is the U.S. government's official web portal to all federal, state and local government web resources and services.